createdAt,value
2018-09-09T00:00:27.009Z,15.40
2018-09-09T00:02:55.467Z,15.40
2018-09-09T00:05:23.899Z,15.40
2018-09-09T00:07:52.322Z,15.50
2018-09-09T00:10:20.775Z,15.40
2018-09-09T00:12:49.216Z,15.40
2018-09-09T00:15:17.653Z,15.40
2018-09-09T00:17:46.103Z,15.40
2018-09-09T00:20:14.531Z,15.40
2018-09-09T00:22:42.975Z,15.40
2018-09-09T00:25:11.449Z,15.40
2018-09-09T00:27:39.906Z,15.40
2018-09-09T00:30:08.384Z,15.40
2018-09-09T00:32:36.828Z,15.50
2018-09-09T00:35:05.334Z,15.40
2018-09-09T00:37:33.746Z,15.40
2018-09-09T00:40:02.174Z,15.40
2018-09-09T00:42:30.612Z,15.40
2018-09-09T00:44:59.026Z,15.40
2018-09-09T00:47:27.477Z,15.40
2018-09-09T00:50:01.167Z,15.40
2018-09-09T00:52:34.966Z,15.40
2018-09-09T00:55:03.398Z,15.40
2018-09-09T00:57:31.854Z,15.40
2018-09-09T01:00:00.286Z,15.40
2018-09-09T01:02:28.706Z,15.40
2018-09-09T01:04:57.150Z,15.40
2018-09-09T01:07:25.594Z,15.40
2018-09-09T01:09:54.042Z,15.40
2018-09-09T01:12:22.457Z,15.30
2018-09-09T01:14:50.902Z,15.30
2018-09-09T01:17:19.351Z,15.30
2018-09-09T01:19:47.819Z,15.30
2018-09-09T01:22:16.241Z,15.20
2018-09-09T01:24:44.681Z,15.10
2018-09-09T01:27:13.099Z,15.10
2018-09-09T01:29:41.519Z,15.00
2018-09-09T01:32:09.961Z,15.00
2018-09-09T01:34:38.383Z,15.00
2018-09-09T01:37:06.815Z,15.00
2018-09-09T01:39:35.269Z,14.90
2018-09-09T01:42:03.684Z,15.00
2018-09-09T01:44:32.089Z,15.00
2018-09-09T01:47:00.549Z,15.00
2018-09-09T01:49:28.991Z,14.90
2018-09-09T01:51:57.419Z,14.90
2018-09-09T01:54:25.826Z,14.90
2018-09-09T01:56:54.247Z,14.80
2018-09-09T01:59:22.697Z,14.80
2018-09-09T02:01:51.140Z,14.90
2018-09-09T02:04:19.598Z,14.90
2018-09-09T02:06:48.036Z,14.90
2018-09-09T02:09:16.808Z,14.90
2018-09-09T02:11:45.278Z,14.90
2018-09-09T02:14:13.704Z,14.80
2018-09-09T02:16:42.206Z,14.80
2018-09-09T02:19:10.622Z,14.80
2018-09-09T02:21:39.074Z,14.80
2018-09-09T02:24:07.534Z,14.80
2018-09-09T02:26:36.001Z,14.80
2018-09-09T02:29:04.416Z,14.70
2018-09-09T02:31:32.877Z,14.70
2018-09-09T02:34:01.316Z,14.60
2018-09-09T02:36:29.746Z,14.60
2018-09-09T02:38:58.195Z,14.70
2018-09-09T02:41:26.626Z,14.60
2018-09-09T02:43:55.061Z,14.60
2018-09-09T02:46:23.512Z,14.60
2018-09-09T02:48:51.956Z,14.50
2018-09-09T02:51:20.392Z,14.50
2018-09-09T02:53:48.851Z,14.50
2018-09-09T02:56:17.295Z,14.50
2018-09-09T02:58:45.732Z,14.50
2018-09-09T03:01:14.140Z,14.50
2018-09-09T03:03:42.557Z,14.50
2018-09-09T03:06:10.963Z,14.50
2018-09-09T03:08:39.411Z,14.50
2018-09-09T03:11:14.212Z,14.50
2018-09-09T03:13:43.764Z,14.40
2018-09-09T03:16:12.305Z,14.40
2018-09-09T03:18:41.578Z,14.40
2018-09-09T03:21:10.033Z,14.40
2018-09-09T03:23:38.460Z,14.50
2018-09-09T03:26:06.910Z,14.50
2018-09-09T03:28:35.414Z,14.40
2018-09-09T03:31:03.839Z,14.40
2018-09-09T03:33:33.115Z,14.40
2018-09-09T03:36:01.818Z,14.40
2018-09-09T03:38:30.332Z,14.30
2018-09-09T03:40:58.750Z,14.30
2018-09-09T03:43:27.164Z,14.30
2018-09-09T03:45:55.605Z,14.30
2018-09-09T03:48:24.052Z,14.30
2018-09-09T03:50:52.482Z,14.40
2018-09-09T03:53:20.894Z,14.40
2018-09-09T03:55:49.338Z,14.40
2018-09-09T03:58:17.836Z,14.50
2018-09-09T04:00:46.281Z,14.50
2018-09-09T04:03:14.728Z,14.50
2018-09-09T04:05:43.166Z,14.40
2018-09-09T04:08:11.696Z,14.40
2018-09-09T04:10:40.126Z,14.30
2018-09-09T04:13:08.575Z,14.30
2018-09-09T04:15:37.084Z,14.20
2018-09-09T04:18:05.589Z,14.20
2018-09-09T04:20:34.270Z,14.20
2018-09-09T04:23:04.031Z,14.20
2018-09-09T04:25:32.601Z,14.10
2018-09-09T04:28:01.832Z,14.10
2018-09-09T04:30:30.304Z,14.10
2018-09-09T04:32:58.793Z,14.10
2018-09-09T04:35:27.215Z,14.20
2018-09-09T04:37:55.655Z,14.20
2018-09-09T04:40:24.110Z,14.20
2018-09-09T04:42:52.538Z,14.30
2018-09-09T04:45:20.990Z,14.30
2018-09-09T04:47:49.468Z,14.30
2018-09-09T04:50:17.938Z,14.30
2018-09-09T04:52:46.374Z,14.30
2018-09-09T04:55:14.831Z,14.30
2018-09-09T04:57:43.261Z,14.30
2018-09-09T05:00:11.698Z,14.30
2018-09-09T05:02:40.142Z,14.30
2018-09-09T05:05:08.609Z,14.20
2018-09-09T05:07:37.047Z,14.20
2018-09-09T05:10:05.505Z,14.30
2018-09-09T05:12:33.918Z,14.30
2018-09-09T05:15:02.351Z,14.30
2018-09-09T05:17:30.783Z,14.30
2018-09-09T05:19:59.215Z,14.30
2018-09-09T05:22:27.680Z,14.40
2018-09-09T05:24:56.137Z,14.40
2018-09-09T05:27:24.614Z,14.40
2018-09-09T05:29:53.037Z,14.40
2018-09-09T05:32:21.493Z,14.40
2018-09-09T05:34:49.952Z,14.40
2018-09-09T05:37:18.414Z,14.50
2018-09-09T05:39:46.898Z,14.50
2018-09-09T05:42:15.535Z,14.50
2018-09-09T05:44:44.249Z,14.50
2018-09-09T05:47:12.680Z,14.60
2018-09-09T05:49:41.144Z,14.60
2018-09-09T05:52:09.668Z,14.60
2018-09-09T05:54:38.126Z,14.70
2018-09-09T05:57:06.898Z,14.70
2018-09-09T05:59:35.516Z,14.80
2018-09-09T06:02:03.968Z,14.80
2018-09-09T06:04:32.405Z,14.80
2018-09-09T06:07:00.855Z,14.80
2018-09-09T06:09:29.302Z,14.90
2018-09-09T06:12:00.656Z,15.00
2018-09-09T06:14:29.489Z,15.20
2018-09-09T06:16:58.376Z,15.20
2018-09-09T06:19:27.995Z,15.30
2018-09-09T06:21:56.576Z,15.30
2018-09-09T06:24:25.032Z,15.30
2018-09-09T06:26:54.001Z,15.40
2018-09-09T06:29:22.530Z,15.50
2018-09-09T06:31:50.982Z,15.50
2018-09-09T06:34:19.437Z,15.60
2018-09-09T06:36:47.985Z,15.60
2018-09-09T06:39:16.480Z,15.70
2018-09-09T06:41:44.983Z,15.70
2018-09-09T06:44:13.566Z,15.70
2018-09-09T06:46:42.257Z,15.80
2018-09-09T06:49:10.852Z,15.90
2018-09-09T06:51:39.324Z,16.00
2018-09-09T06:54:07.808Z,16.00
2018-09-09T06:56:36.305Z,16.10
2018-09-09T06:59:04.799Z,16.20
2018-09-09T07:01:33.266Z,16.20
2018-09-09T07:04:01.725Z,16.30
2018-09-09T07:06:30.270Z,16.30
2018-09-09T07:08:58.767Z,16.40
2018-09-09T07:11:27.343Z,16.40
2018-09-09T07:13:55.678Z,16.40
2018-09-09T07:16:24.239Z,16.40
2018-09-09T07:18:52.734Z,16.40
2018-09-09T07:21:21.213Z,16.40
2018-09-09T07:23:49.740Z,16.60
2018-09-09T07:26:18.219Z,16.70
2018-09-09T07:28:46.675Z,16.70
2018-09-09T07:31:15.185Z,16.80
2018-09-09T07:33:43.664Z,16.90
2018-09-09T07:36:12.112Z,17.10
2018-09-09T07:38:40.558Z,17.20
2018-09-09T07:41:09.051Z,17.40
2018-09-09T07:43:37.478Z,17.40
2018-09-09T07:46:06.064Z,17.50
2018-09-09T07:48:34.553Z,17.60
2018-09-09T07:51:03.008Z,17.70
2018-09-09T07:53:31.476Z,17.80
2018-09-09T07:56:01.296Z,17.80
2018-09-09T07:58:29.830Z,18.20
2018-09-09T08:00:58.348Z,18.50
2018-09-09T08:03:26.844Z,18.60
2018-09-09T08:05:55.342Z,18.60
2018-09-09T08:08:23.796Z,18.40
2018-09-09T08:10:52.250Z,18.30
2018-09-09T08:13:20.722Z,18.20
2018-09-09T08:15:49.149Z,18.20
2018-09-09T08:18:17.674Z,18.10
2018-09-09T08:20:46.994Z,18.20
2018-09-09T08:23:15.444Z,18.70
2018-09-09T08:25:43.962Z,19.90
2018-09-09T08:28:12.400Z,20.70
2018-09-09T08:30:40.828Z,21.20
2018-09-09T08:33:09.364Z,21.50
2018-09-09T08:35:37.888Z,22.60
2018-09-09T08:38:06.486Z,24.10
2018-09-09T08:40:34.989Z,25.00
2018-09-09T08:43:03.485Z,23.80
2018-09-09T08:45:31.965Z,22.90
2018-09-09T08:48:00.385Z,23.10
2018-09-09T08:50:28.833Z,24.60
2018-09-09T08:52:57.245Z,26.10
2018-09-09T08:55:25.692Z,27.60
2018-09-09T08:57:54.159Z,28.20
2018-09-09T09:00:29.398Z,28.00
2018-09-09T09:02:57.844Z,26.30
2018-09-09T09:05:26.301Z,24.70
2018-09-09T09:07:54.799Z,23.70
2018-09-09T09:10:23.226Z,23.30
2018-09-09T09:12:51.649Z,22.90
2018-09-09T09:15:20.099Z,23.00
2018-09-09T09:17:48.541Z,22.60
2018-09-09T09:20:16.980Z,22.40
2018-09-09T09:22:45.403Z,22.30
2018-09-09T09:25:13.869Z,22.20
2018-09-09T09:27:42.428Z,21.90
2018-09-09T09:30:10.897Z,21.50
2018-09-09T09:32:43.579Z,21.20
2018-09-09T09:35:12.049Z,21.20
2018-09-09T09:37:41.056Z,21.10
2018-09-09T09:40:09.510Z,21.10
2018-09-09T09:42:37.935Z,21.10
2018-09-09T09:45:06.417Z,21.20
2018-09-09T09:47:34.886Z,21.20
2018-09-09T09:50:03.369Z,21.30
2018-09-09T09:52:31.792Z,21.40
2018-09-09T09:55:00.378Z,21.20
2018-09-09T09:57:28.764Z,21.30
2018-09-09T09:59:57.218Z,21.30
2018-09-09T10:02:25.672Z,21.50
2018-09-09T10:04:54.109Z,21.60
2018-09-09T10:07:22.539Z,21.70
2018-09-09T10:09:50.980Z,21.90
2018-09-09T10:12:19.414Z,22.20
2018-09-09T10:14:47.888Z,22.40
2018-09-09T10:17:16.364Z,22.60
2018-09-09T10:19:44.794Z,23.00
2018-09-09T10:22:13.206Z,23.40
2018-09-09T10:24:41.668Z,23.30
2018-09-09T10:27:10.105Z,23.40
2018-09-09T10:29:38.565Z,23.50
2018-09-09T10:32:07.009Z,23.00
2018-09-09T10:34:35.466Z,22.90
2018-09-09T10:37:03.994Z,22.60
2018-09-09T10:39:32.461Z,22.30
2018-09-09T10:42:01.004Z,22.10
2018-09-09T10:44:29.460Z,22.00
2018-09-09T10:46:57.922Z,22.10
2018-09-09T10:49:26.343Z,22.10
2018-09-09T10:51:54.809Z,22.00
2018-09-09T10:54:23.243Z,21.90
2018-09-09T10:56:51.705Z,22.20
2018-09-09T10:59:20.173Z,22.50
2018-09-09T11:01:48.619Z,22.80
2018-09-09T11:04:17.075Z,22.70
2018-09-09T11:06:45.993Z,22.70
2018-09-09T11:09:14.474Z,23.00
2018-09-09T11:11:43.017Z,23.00
2018-09-09T11:14:11.440Z,23.00
2018-09-09T11:16:39.933Z,23.10
2018-09-09T11:19:08.429Z,23.30
2018-09-09T11:21:36.961Z,23.50
2018-09-09T11:24:05.460Z,24.10
2018-09-09T11:26:33.869Z,25.00
2018-09-09T11:29:02.299Z,25.60
2018-09-09T11:31:30.773Z,26.30
2018-09-09T11:33:59.241Z,28.80
2018-09-09T11:36:27.700Z,30.10
2018-09-09T11:38:56.165Z,29.70
2018-09-09T11:41:24.642Z,28.70
2018-09-09T11:43:53.155Z,28.30
2018-09-09T11:46:21.572Z,29.50
2018-09-09T11:48:50.031Z,32.60
2018-09-09T11:51:18.475Z,33.70
2018-09-09T11:53:46.890Z,33.10
2018-09-09T11:56:15.414Z,33.50
2018-09-09T11:58:43.950Z,34.40
2018-09-09T12:01:12.374Z,35.30
2018-09-09T12:03:40.828Z,35.60
2018-09-09T12:06:09.294Z,35.90
2018-09-09T12:08:37.781Z,35.80
2018-09-09T12:11:06.551Z,35.30
2018-09-09T12:13:35.051Z,34.30
2018-09-09T12:16:03.475Z,34.60
2018-09-09T12:18:31.957Z,34.80
2018-09-09T12:21:00.471Z,33.70
2018-09-09T12:23:28.919Z,33.30
2018-09-09T12:25:57.434Z,33.60
2018-09-09T12:28:25.845Z,34.20
2018-09-09T12:30:54.311Z,35.20
2018-09-09T12:33:23.028Z,36.20
2018-09-09T12:35:51.866Z,37.00
2018-09-09T12:38:20.342Z,36.40
2018-09-09T12:40:48.803Z,36.30
2018-09-09T12:43:22.573Z,36.00
2018-09-09T12:45:56.529Z,35.90
2018-09-09T12:48:30.337Z,36.20
2018-09-09T12:50:59.022Z,36.50
2018-09-09T12:53:27.481Z,36.80
2018-09-09T12:55:55.941Z,35.40
2018-09-09T12:58:24.423Z,34.90
2018-09-09T13:00:52.875Z,35.70
2018-09-09T13:03:21.316Z,35.50
2018-09-09T13:05:49.804Z,34.70
2018-09-09T13:08:18.256Z,34.60
2018-09-09T13:10:46.736Z,35.20
2018-09-09T13:13:15.576Z,35.80
2018-09-09T13:15:44.078Z,35.30
2018-09-09T13:18:12.500Z,35.30
2018-09-09T13:20:41.002Z,36.00
2018-09-09T13:23:09.469Z,35.40
2018-09-09T13:25:37.954Z,34.30
2018-09-09T13:28:06.512Z,34.00
2018-09-09T13:30:35.220Z,34.90
2018-09-09T13:33:03.693Z,35.00
2018-09-09T13:35:32.125Z,34.70
2018-09-09T13:38:00.566Z,35.30
2018-09-09T13:40:29.014Z,34.90
2018-09-09T13:42:57.478Z,34.50
2018-09-09T13:45:26.013Z,35.20
2018-09-09T13:47:54.479Z,35.20
2018-09-09T13:50:22.934Z,34.50
2018-09-09T13:52:51.402Z,34.80
2018-09-09T13:55:19.880Z,35.70
2018-09-09T13:57:48.328Z,36.00
2018-09-09T14:00:16.756Z,36.50
2018-09-09T14:02:45.220Z,36.00
2018-09-09T14:05:13.754Z,35.20
2018-09-09T14:07:42.223Z,35.70
2018-09-09T14:10:10.670Z,36.50
2018-09-09T14:12:39.144Z,36.20
2018-09-09T14:15:08.118Z,35.50
2018-09-09T14:17:36.857Z,34.20
2018-09-09T14:20:05.358Z,33.80
2018-09-09T14:22:33.857Z,33.70
2018-09-09T14:25:02.253Z,33.80
2018-09-09T14:27:30.693Z,33.70
2018-09-09T14:29:59.125Z,33.90
2018-09-09T14:32:27.592Z,33.80
2018-09-09T14:34:56.016Z,32.90
2018-09-09T14:37:24.524Z,32.90
2018-09-09T14:39:52.959Z,33.60
2018-09-09T14:42:21.490Z,33.40
2018-09-09T14:44:49.944Z,31.80
2018-09-09T14:47:18.422Z,30.60
2018-09-09T14:49:46.879Z,31.60
2018-09-09T14:52:15.348Z,32.20
2018-09-09T14:54:43.911Z,32.60
2018-09-09T14:57:12.378Z,33.10
2018-09-09T14:59:40.828Z,33.20
2018-09-09T15:02:09.306Z,33.70
2018-09-09T15:04:37.790Z,33.90
2018-09-09T15:07:06.279Z,33.80
2018-09-09T15:09:34.770Z,33.90
2018-09-09T15:12:03.398Z,34.60
2018-09-09T15:14:31.852Z,35.30
2018-09-09T15:17:00.416Z,35.00
2018-09-09T15:19:28.954Z,35.20
2018-09-09T15:21:57.515Z,36.00
2018-09-09T15:24:26.157Z,35.70
2018-09-09T15:26:54.789Z,35.10
2018-09-09T15:29:23.329Z,34.80
2018-09-09T15:31:51.782Z,32.40
2018-09-09T15:34:20.459Z,30.80
2018-09-09T15:36:48.901Z,30.20
2018-09-09T15:39:17.374Z,29.90
2018-09-09T15:41:45.845Z,29.40
2018-09-09T15:44:14.353Z,29.00
2018-09-09T15:46:42.889Z,28.50
2018-09-09T15:49:11.419Z,28.20
2018-09-09T15:51:39.903Z,27.80
2018-09-09T15:54:08.385Z,27.70
2018-09-09T15:56:36.916Z,27.60
2018-09-09T15:59:05.392Z,27.60
2018-09-09T16:01:33.919Z,27.50
2018-09-09T16:04:02.432Z,27.50
2018-09-09T16:06:30.945Z,27.40
2018-09-09T16:08:59.449Z,27.20
2018-09-09T16:11:27.967Z,27.10
2018-09-09T16:13:56.554Z,26.90
2018-09-09T16:16:25.050Z,26.70
2018-09-09T16:18:53.489Z,26.80
2018-09-09T16:21:21.928Z,26.80
2018-09-09T16:23:50.385Z,26.60
2018-09-09T16:26:18.880Z,26.30
2018-09-09T16:28:47.494Z,26.10
2018-09-09T16:31:15.992Z,26.00
2018-09-09T16:33:44.469Z,26.00
2018-09-09T16:36:13.028Z,26.00
2018-09-09T16:38:41.696Z,26.00
2018-09-09T16:41:10.207Z,26.00
2018-09-09T16:43:38.766Z,25.90
2018-09-09T16:46:07.254Z,25.90
2018-09-09T16:48:36.041Z,25.80
2018-09-09T16:51:04.902Z,25.90
2018-09-09T16:53:33.398Z,25.90
2018-09-09T16:56:01.890Z,25.80
2018-09-09T16:58:30.379Z,25.60
2018-09-09T17:00:58.826Z,25.40
2018-09-09T17:03:27.992Z,25.30
2018-09-09T17:05:56.634Z,25.20
2018-09-09T17:08:25.288Z,25.00
2018-09-09T17:10:54.301Z,24.90
2018-09-09T17:13:22.916Z,24.70
2018-09-09T17:15:51.549Z,24.60
2018-09-09T17:18:20.144Z,24.50
2018-09-09T17:20:48.853Z,24.30
2018-09-09T17:23:17.368Z,24.20
2018-09-09T17:28:34.324Z,23.90
2018-09-09T17:31:03.405Z,23.80
2018-09-09T17:33:32.672Z,23.60
2018-09-09T17:36:01.796Z,23.50
2018-09-09T17:38:33.019Z,23.40
2018-09-09T17:41:01.559Z,23.30
2018-09-09T17:43:30.000Z,23.20
2018-09-09T17:45:58.457Z,23.10
2018-09-09T17:48:26.937Z,23.00
2018-09-09T17:50:55.391Z,23.00
2018-09-09T17:53:23.882Z,23.00
2018-09-09T17:55:52.338Z,22.90
2018-09-09T17:58:20.785Z,22.80
2018-09-09T18:00:49.333Z,22.80
2018-09-09T18:03:17.803Z,22.70
2018-09-09T18:05:46.395Z,22.60
2018-09-09T18:08:14.867Z,22.60
2018-09-09T18:10:43.395Z,22.50
2018-09-09T18:13:11.893Z,22.40
2018-09-09T18:15:40.379Z,22.30
2018-09-09T18:18:08.883Z,22.30
2018-09-09T18:20:37.515Z,22.20
2018-09-09T18:23:05.971Z,22.10
2018-09-09T18:25:34.470Z,22.00
2018-09-09T18:28:02.946Z,21.90
2018-09-09T18:30:31.404Z,21.80
2018-09-09T18:33:00.598Z,21.70
2018-09-09T18:35:29.077Z,21.50
2018-09-09T18:37:57.598Z,21.40
2018-09-09T18:40:26.075Z,21.30
2018-09-09T18:42:54.796Z,21.10
2018-09-09T18:45:23.276Z,21.00
2018-09-09T18:47:51.692Z,20.90
2018-09-09T18:50:20.150Z,20.90
2018-09-09T18:52:48.613Z,20.80
2018-09-09T18:55:17.079Z,20.80
2018-09-09T18:57:45.554Z,20.80
2018-09-09T19:00:14.093Z,20.80
2018-09-09T19:02:42.566Z,20.70
2018-09-09T19:05:11.036Z,20.70
2018-09-09T19:07:39.496Z,20.60
2018-09-09T19:10:08.016Z,20.60
2018-09-09T19:12:36.485Z,20.60
2018-09-09T19:15:05.399Z,20.50
2018-09-09T19:17:33.950Z,20.50
2018-09-09T19:20:02.377Z,20.40
2018-09-09T19:22:30.898Z,20.30
2018-09-09T19:24:59.326Z,20.20
2018-09-09T19:27:27.808Z,20.20
2018-09-09T19:29:56.310Z,20.10
2018-09-09T19:32:24.806Z,20.00
2018-09-09T19:34:53.507Z,20.00
2018-09-09T19:37:21.989Z,19.90
2018-09-09T19:39:50.483Z,19.90
2018-09-09T19:42:18.958Z,19.90
2018-09-09T19:44:47.407Z,19.80
2018-09-09T19:47:15.917Z,19.80
2018-09-09T19:49:44.460Z,19.70
2018-09-09T19:52:12.916Z,19.70
2018-09-09T19:54:41.431Z,19.60
2018-09-09T19:57:09.903Z,19.60
2018-09-09T19:59:38.403Z,19.50
2018-09-09T20:02:06.882Z,19.40
2018-09-09T20:04:35.370Z,19.30
2018-09-09T20:07:03.805Z,19.30
2018-09-09T20:09:32.268Z,19.20
2018-09-09T20:12:01.079Z,19.10
2018-09-09T20:14:29.550Z,19.00
2018-09-09T20:16:58.127Z,18.90
2018-09-09T20:19:26.582Z,18.80
2018-09-09T20:21:55.030Z,18.80
2018-09-09T20:24:23.482Z,18.70
2018-09-09T20:26:51.994Z,18.70
2018-09-09T20:29:20.490Z,18.60
2018-09-09T20:31:49.044Z,18.60
2018-09-09T20:34:17.558Z,18.50
2018-09-09T20:36:46.044Z,18.50
2018-09-09T20:39:14.486Z,18.40
2018-09-09T20:41:43.041Z,18.40
2018-09-09T20:44:11.519Z,18.40
2018-09-09T20:46:40.014Z,18.30
2018-09-09T20:49:08.483Z,18.30
2018-09-09T20:51:36.972Z,18.30
2018-09-09T20:54:05.434Z,18.20
2018-09-09T20:56:33.935Z,18.20
2018-09-09T20:59:02.379Z,18.10
2018-09-09T21:01:30.813Z,18.10
2018-09-09T21:03:59.265Z,18.00
2018-09-09T21:06:27.719Z,18.00
2018-09-09T21:08:56.169Z,17.90
2018-09-09T21:11:24.613Z,17.80
2018-09-09T21:13:53.067Z,17.80
2018-09-09T21:16:21.552Z,17.70
2018-09-09T21:18:49.983Z,17.70
2018-09-09T21:21:18.459Z,17.60
2018-09-09T21:23:46.893Z,17.60
2018-09-09T21:26:15.458Z,17.60
2018-09-09T21:28:43.851Z,17.60
2018-09-09T21:31:12.318Z,17.60
2018-09-09T21:33:40.786Z,17.60
2018-09-09T21:36:09.214Z,17.60
2018-09-09T21:38:37.888Z,17.60
2018-09-09T21:41:06.367Z,17.60
2018-09-09T21:43:34.792Z,17.70
2018-09-09T21:46:03.262Z,17.70
2018-09-09T21:48:31.696Z,17.80
2018-09-09T21:51:00.192Z,17.80
2018-09-09T21:53:28.680Z,17.80
2018-09-09T21:55:57.155Z,17.90
2018-09-09T21:58:25.564Z,17.90
2018-09-09T22:00:59.412Z,17.90
2018-09-09T22:03:27.859Z,17.90
2018-09-09T22:05:57.134Z,17.90
2018-09-09T22:08:25.708Z,17.90
2018-09-09T22:10:54.114Z,17.90
2018-09-09T22:13:22.580Z,17.90
2018-09-09T22:15:51.032Z,17.80
2018-09-09T22:18:19.468Z,17.70
2018-09-09T22:20:48.462Z,17.60
2018-09-09T22:23:16.954Z,17.50
2018-09-09T22:25:45.414Z,17.40
2018-09-09T22:28:13.857Z,17.30
2018-09-09T22:30:42.305Z,17.20
2018-09-09T22:33:10.743Z,17.10
2018-09-09T22:35:39.211Z,17.10
2018-09-09T22:38:07.821Z,17.10
2018-09-09T22:40:36.363Z,17.00
2018-09-09T22:43:05.080Z,16.90
2018-09-09T22:45:33.534Z,16.90
2018-09-09T22:48:02.018Z,16.90
2018-09-09T22:50:30.463Z,16.90
2018-09-09T22:52:58.884Z,16.80
2018-09-09T22:55:27.348Z,16.80
2018-09-09T22:57:55.762Z,16.80
2018-09-09T23:00:24.220Z,16.70
2018-09-09T23:02:52.701Z,16.70
2018-09-09T23:05:21.456Z,16.60
2018-09-09T23:07:49.868Z,16.50
2018-09-09T23:10:18.312Z,16.50
2018-09-09T23:12:46.751Z,16.50
2018-09-09T23:15:15.313Z,16.60
2018-09-09T23:17:43.744Z,16.60
2018-09-09T23:20:12.224Z,16.70
2018-09-09T23:22:40.656Z,16.70
2018-09-09T23:25:09.078Z,16.60
2018-09-09T23:27:37.550Z,16.60
2018-09-09T23:30:06.061Z,16.50
2018-09-09T23:32:34.502Z,16.40
2018-09-09T23:35:02.952Z,16.40
2018-09-09T23:37:31.396Z,16.30
2018-09-09T23:39:59.811Z,16.30
2018-09-09T23:42:28.251Z,16.20
2018-09-09T23:44:56.682Z,16.20
2018-09-09T23:47:25.149Z,16.20
2018-09-09T23:49:53.587Z,16.20
2018-09-09T23:52:22.030Z,16.10
2018-09-09T23:54:50.453Z,16.10
2018-09-09T23:57:18.926Z,16.10
2018-09-09T23:59:47.418Z,16.10
